TAF Text Data
IDs:
Format:
Raw Decoded Include METAR

Data at: 1605 UTC 20 Sep 2018

TAF for:KSJC (San Jose Intl Arpt, CA, US) issued at 1125 UTC 20 Sep 2018
Text:KSJC 201125Z 2012/2112 16006KT P6SM SKC
Forecast period:1200 to 1900 UTC 20 September 2018
Forecast type:FROM: standard forecast or significant change
Winds:from the SSE (160 degrees) at 7 MPH (6 knots; 3.1 m/s)
Visibility:6 or more sm (10+ km)
Ceiling:at least 12,000 feet AGL
Clouds:clear skies
Text:FM201900 33005KT P6SM SKC
Forecast period:1900 to 2200 UTC 20 September 2018
Forecast type:FROM: standard forecast or significant change
Winds:from the NNW (330 degrees) at 6 MPH (5 knots; 2.6 m/s)
Visibility:6 or more sm (10+ km)
Ceiling:at least 12,000 feet AGL
Clouds:clear skies
Text:FM202200 33010KT P6SM SKC
Forecast period:2200 UTC 20 September 2018 to 0400 UTC 21 September 2018
Forecast type:FROM: standard forecast or significant change
Winds:from the NNW (330 degrees) at 12 MPH (10 knots; 5.1 m/s)
Visibility:6 or more sm (10+ km)
Ceiling:at least 12,000 feet AGL
Clouds:clear skies
Text:FM210400 VRB03KT P6SM SKC
Forecast period:0400 to 1200 UTC 21 September 2018
Forecast type:FROM: standard forecast or significant change
Winds:variable direction winds at 3 MPH (3 knots; 1.5 m/s)
Visibility:6 or more sm (10+ km)
Ceiling:at least 12,000 feet AGL
Clouds:clear skies